9A5

Barwick Lafayette Airport

Lafayette, Georgia, USA
METAR K9A5 190855Z AUTO 00000KT 10SM CLR 07/07 A3034 RMK AO2 T00710066
Observed Flight Rules
Oct-19 @ 08:55 UTC (38 minutes ago) Visual Flight Rules
Visibility Clouds
10 miles
  • Clear skies
Temperatures Readings
Current 7°C / 45°F
Dewpoint 7°C / 45°F
Humidity 100%
Altimeter 30.34" Hg
Pressure 1027 hPa
Elevation 237
METAR K9A5 190855Z AUTO 00000KT 10SM CLR 07/07 A3034 RMK AO2 T00710066
Observed Flight Rules
Oct-19 @ 08:55 UTC
(38 minutes ago)
VFR
Clouds
  • Clear skies
Temperature Dewpoint
7°C / 45°F 7°C / 45°F
Humidity Altimeter Pressure
100% 30.34" Hg 1027 hPa